Terminal Aerodrome Forecast
Issued by NWS Cleveland, OH

Home | Current Version | Previous Version | Text Only | Print | Product List | Glossary On
Versions: 1 2 3 4 5 6 7 8 9 10 11 12 13 14 15
000
FTUS41 KCLE 241459 AAA
TAFTOL
TAF AMD
KTOL 241459Z 2415/2512 21012KT P6SM SKC
     FM241800 21012KT P6SM SKC
     FM250200 21014G23KT P6SM BKN200
     FM250800 24010KT P6SM BKN050=

USA.gov is the U.S. government's official web portal to all federal, state and local government web resources and services.